Time;durP1;ratioP1;P1;durP2;ratioP2;P2;SDS_P1;SDS_P2;PMS_P1;PMS_P2;Temp;Humidity;BMP_temperature;BMP_pressure;BME280_temperature;BME280_humidity;BME280_pressure;Samples;Min_cycle;Max_cycle;Signal;HPM_P1;HPM_P2
2021/11/02 09:49:41;;;;;;;1.88;1.77;;;;;;;;;;6223405;22;20012;-79
2021/11/02 09:52:34;;;;;;;2.00;1.90;;;;;;;;;;6221191;23;20019;-79
2021/11/02 09:55:35;;;;;;;2.10;2.00;;;;;;;;;;6248207;23;20079;-80
2021/11/02 09:58:16;;;;;;;2.08;1.90;;;;;;;;;;6183795;23;20051;-80
2021/11/02 10:00:55;;;;;;;1.92;1.83;;;;;;;;;;6247989;23;20000;-79
2021/11/02 10:03:59;;;;;;;1.80;1.70;;;;;;;;;;6221210;23;20012;-78
2021/11/02 10:06:27;;;;;;;1.67;1.63;;;;;;;;;;6247828;23;20004;-81
2021/11/02 10:09:07;;;;;;;1.73;1.63;;;;;;;;;;6248199;23;20004;-81
2021/11/02 10:11:43;;;;;;;1.98;1.88;;;;;;;;;;6248176;23;20004;-80
2021/11/02 10:14:42;;;;;;;2.33;1.48;;;;;;;;;;6247690;23;20138;-80
2021/11/02 10:17:13;;;;;;;2.28;2.03;;;;;;;;;;6247866;23;20075;-80
2021/11/02 10:20:00;;;;;;;2.00;1.75;;;;;;;;;;6221290;23;20008;-80
2021/11/02 10:22:50;;;;;;;2.67;2.00;;;;;;;;;;6248153;23;20004;-81
2021/11/02 10:25:22;;;;;;;1.67;1.58;;;;;;;;;;6247858;23;19996;-81
2021/11/02 10:28:24;;;;;;;1.90;1.77;;;;;;;;;;6247835;23;20417;-81
2021/11/02 10:31:13;;;;;;;1.60;1.50;;;;;;;;;;6247696;23;20012;-81
2021/11/02 10:33:52;;;;;;;1.40;1.30;;;;;;;;;;6247857;23;20071;-81
2021/11/02 10:36:48;;;;;;;2.00;1.40;;;;;;;;;;6220844;23;20027;-81
2021/11/02 10:39:20;;;;;;;1.60;1.42;;;;;;;;;;6247677;23;20008;-82
2021/11/02 10:42:02;;;;;;;1.80;1.70;;;;;;;;;;6246918;23;20041;-81
2021/11/02 10:44:49;;;;;;;1.30;1.20;;;;;;;;;;6195393;23;20308;-80
2021/11/02 10:47:21;;;;;;;1.27;1.27;;;;;;;;;;6247488;23;20458;-81
2021/11/02 10:50:05;;;;;;;1.63;1.20;;;;;;;;;;6277126;22;20014;-80
2021/11/02 10:52:32;;;;;;;1.63;1.17;;;;;;;;;;6278503;22;20027;-80
2021/11/02 10:55:18;;;;;;;1.40;1.30;;;;;;;;;;6278399;22;20002;-80
2021/11/02 10:57:59;;;;;;;1.45;1.33;;;;;;;;;;6278252;22;20018;-81
2021/11/02 11:00:26;;;;;;;1.95;1.30;;;;;;;;;;6278252;22;20000;-82
2021/11/02 11:03:06;;;;;;;1.38;1.27;;;;;;;;;;6278358;22;20008;-80
2021/11/02 11:05:32;;;;;;;1.58;1.48;;;;;;;;;;6250860;22;20397;-82
2021/11/02 11:08:00;;;;;;;1.65;1.52;;;;;;;;;;6278094;22;20038;-86
2021/11/02 11:10:28;;;;;;;0.90;0.90;;;;;;;;;;6278022;22;20007;-79
2021/11/02 11:12:55;;;;;;;;;;;;;;;;;;6278917;22;20000;-80
2021/11/02 11:15:25;;;;;;;3.80;2.58;;;;;;;;;;6278091;22;19997;-80
2021/11/02 11:18:00;;;;;;;4.72;2.58;;;;;;;;;;6277834;22;19995;-81
2021/11/02 11:20:26;;;;;;;1.65;1.55;;;;;;;;;;6277747;22;20078;-78
2021/11/02 11:22:53;;;;;;;1.10;1.00;;;;;;;;;;6277747;22;20046;-85
2021/11/02 11:25:44;;;;;;;1.63;1.23;;;;;;;;;;6278472;22;20004;-85
2021/11/02 11:28:15;;;;;;;1.35;1.20;;;;;;;;;;6250669;22;20007;-80
2021/11/02 11:30:42;;;;;;;1.45;1.35;;;;;;;;;;6278002;22;20008;-79
2021/11/02 11:33:14;;;;;;;1.00;1.00;;;;;;;;;;6277639;22;20008;-80
2021/11/02 11:35:42;;;;;;;1.40;1.30;;;;;;;;;;6277628;22;20007;-79
2021/11/02 11:38:09;;;;;;;1.00;1.00;;;;;;;;;;6277484;22;20079;-77
2021/11/02 11:40:40;;;;;;;0.88;0.88;;;;;;;;;;6278094;22;20014;-84
2021/11/02 11:43:08;;;;;;;1.35;1.02;;;;;;;;;;6277857;22;20387;-77
2021/11/02 11:45:37;;;;;;;1.05;1.05;;;;;;;;;;6277308;22;20046;-80
2021/11/02 11:48:24;;;;;;;1.55;1.00;;;;;;;;;;6277630;22;20339;-77
2021/11/02 11:50:51;;;;;;;1.20;1.20;;;;;;;;;;6277591;22;20008;-77
2021/11/02 11:53:21;;;;;;;0.80;0.80;;;;;;;;;;6277490;22;20008;-77
2021/11/02 11:56:00;;;;;;;1.00;1.00;;;;;;;;;;6277612;22;20010;-78
2021/11/02 11:58:26;;;;;;;1.23;1.13;;;;;;;;;;6277578;22;20010;-78
2021/11/02 12:00:54;;;;;;;0.75;0.70;;;;;;;;;;6277529;22;20410;-79
2021/11/02 12:03:55;;;;;;;0.80;0.80;;;;;;;;;;6250190;22;20033;-78
2021/11/02 12:06:33;;;;;;;0.93;0.93;;;;;;;;;;6277329;22;20004;-78
2021/11/02 12:08:58;;;;;;;2.00;1.00;;;;;;;;;;6277534;22;20013;-77
2021/11/02 12:11:32;;;;;;;0.57;0.45;;;;;;;;;;6277478;22;20217;-78
2021/11/02 12:14:21;;;;;;;2.45;1.08;;;;;;;;;;6277314;22;20010;-76
2021/11/02 12:16:48;;;;;;;0.75;0.55;;;;;;;;;;6277294;22;20006;-76
2021/11/02 12:19:22;;;;;;;0.65;0.60;;;;;;;;;;6277408;22;20003;-79
2021/11/02 12:22:01;;;;;;;0.95;0.90;;;;;;;;;;6277392;22;20022;-78
2021/11/02 12:24:31;;;;;;;;;;;;;;;;;;6277840;22;20008;-78
2021/11/02 12:27:12;;;;;;;1.13;0.80;;;;;;;;;;6277321;22;19907;-78
2021/11/02 12:29:40;;;;;;;1.50;1.05;;;;;;;;;;6250129;22;20331;-80
2021/11/02 12:32:07;;;;;;;1.23;0.70;;;;;;;;;;6277404;22;20058;-79
2021/11/02 12:34:48;;;;;;;1.50;1.40;;;;;;;;;;6277270;22;20027;-79
2021/11/02 12:37:14;;;;;;;0.70;0.60;;;;;;;;;;6277551;22;20079;-79
2021/11/02 12:39:41;;;;;;;0.43;0.40;;;;;;;;;;6277765;22;20411;-79
2021/11/02 12:42:07;;;;;;;0.20;0.20;;;;;;;;;;6277242;22;20004;-78
2021/11/02 12:44:34;;;;;;;1.35;0.40;;;;;;;;;;6277628;22;19999;-78
2021/11/02 12:47:02;;;;;;;0.55;0.40;;;;;;;;;;6278376;22;20039;-80
2021/11/02 15:31:02;;;;;;;5.55;4.32;;;;;;;;;;6192347;23;20020;-80
2021/11/02 15:33:32;;;;;;;9.75;6.30;;;;;;;;;;6247095;23;20198;-80
2021/11/02 15:36:21;;;;;;;12.60;6.57;;;;;;;;;;6245815;23;20319;-80
2021/11/02 15:38:59;;;;;;;5.10;3.15;;;;;;;;;;6246726;23;20097;-80
2021/11/02 15:41:26;;;;;;;4.78;2.45;;;;;;;;;;6246938;23;20136;-80
2021/11/02 15:43:53;;;;;;;26.13;11.48;;;;;;;;;;6246870;23;20027;-81
2021/11/02 15:46:40;;;;;;;19.00;9.13;;;;;;;;;;6246804;23;20004;-80
2021/11/02 15:49:09;;;;;;;28.83;11.55;;;;;;;;;;6246624;23;20080;-81
2021/11/02 15:51:58;;;;;;;94.60;33.75;;;;;;;;;;6247099;23;20496;-80
2021/11/02 15:54:26;;;;;;;23.30;9.70;;;;;;;;;;6247319;23;20023;-80
2021/11/02 15:56:53;;;;;;;44.75;19.30;;;;;;;;;;6246204;23;20000;-80
2021/11/02 15:59:24;;;;;;;39.10;15.68;;;;;;;;;;6246689;23;20011;-80
2021/11/02 16:01:50;;;;;;;8.93;7.35;;;;;;;;;;6246976;23;20011;-80
2021/11/02 16:04:24;;;;;;;3.50;1.30;;;;;;;;;;6247098;23;20067;-80
2021/11/02 16:07:01;;;;;;;11.30;5.75;;;;;;;;;;6246486;23;20031;-80
2021/11/02 16:09:50;;;;;;;8.13;3.80;;;;;;;;;;6246715;23;20004;-80
2021/11/02 16:12:26;;;;;;;4.75;2.45;;;;;;;;;;6246670;23;20076;-80
2021/11/02 16:15:23;;;;;;;10.25;5.10;;;;;;;;;;6219702;23;20004;-80
2021/11/02 16:17:56;;;;;;;3.65;2.40;;;;;;;;;;6240696;23;20075;-80
2021/11/02 16:20:23;;;;;;;15.05;8.38;;;;;;;;;;6246689;23;20309;-79
2021/11/02 16:22:55;;;;;;;40.35;23.15;;;;;;;;;;6219585;23;20008;-79
2021/11/02 16:25:21;;;;;;;7.90;4.97;;;;;;;;;;6246681;23;20000;-80
2021/11/02 16:28:33;;;;;;;1.45;1.00;;;;;;;;;;6246534;23;20000;-80
2021/11/02 16:31:02;;;;;;;2.60;1.25;;;;;;;;;;6219629;23;20024;-79
2021/11/02 16:33:40;;;;;;;2.33;1.95;;;;;;;;;;6216075;23;20008;-80
2021/11/02 16:36:21;;;;;;;4.18;2.65;;;;;;;;;;6216127;23;20076;-80
2021/11/02 16:38:47;;;;;;;2.20;2.00;;;;;;;;;;6189536;23;20099;-79
2021/11/02 16:41:20;;;;;;;2.03;1.20;;;;;;;;;;6215746;23;20012;-79
2021/11/02 16:44:01;;;;;;;2.83;1.83;;;;;;;;;;6216153;23;20080;-79
2021/11/02 16:46:33;;;;;;;2.47;2.28;;;;;;;;;;6216187;23;20035;-80
2021/11/02 16:49:04;;;;;;;2.10;1.70;;;;;;;;;;6215955;23;20075;-80
2021/11/02 16:51:48;;;;;;;5.68;1.67;;;;;;;;;;6215919;23;20009;-80
2021/11/02 16:54:20;;;;;;;1.45;1.10;;;;;;;;;;6216433;23;20008;-79
2021/11/02 16:57:17;;;;;;;1.15;1.05;;;;;;;;;;6189431;23;20446;-79
2021/11/02 16:59:51;;;;;;;5.40;4.28;;;;;;;;;;6189322;23;20486;-80
2021/11/02 17:02:38;;;;;;;2.75;1.35;;;;;;;;;;6215879;23;20032;-79
2021/11/02 17:05:40;;;;;;;1.52;1.00;;;;;;;;;;6215938;23;20008;-79
2021/11/02 17:08:07;;;;;;;1.73;1.00;;;;;;;;;;6153823;23;20006;-79
2021/11/02 17:10:41;;;;;;;2.20;1.10;;;;;;;;;;6203864;23;20009;-79
2021/11/02 17:13:13;;;;;;;4.25;3.50;;;;;;;;;;6215744;23;20001;-78
2021/11/02 17:15:52;;;;;;;2.88;2.10;;;;;;;;;;6215862;23;20020;-79
2021/11/02 17:18:38;;;;;;;1.73;1.30;;;;;;;;;;6215670;23;20012;-79
2021/11/02 17:21:06;;;;;;;4.22;1.02;;;;;;;;;;6189119;23;20004;-79
2021/11/02 17:23:32;;;;;;;1.65;1.17;;;;;;;;;;6216007;23;20036;-79
2021/11/02 17:25:58;;;;;;;1.17;1.00;;;;;;;;;;6214154;23;20088;-79
2021/11/02 17:28:24;;;;;;;1.35;1.25;;;;;;;;;;6216063;23;20000;-79
2021/11/02 17:30:49;;;;;;;1.25;1.15;;;;;;;;;;6193827;23;20017;-80
2021/11/02 17:33:17;;;;;;;3.00;1.30;;;;;;;;;;6215848;23;20019;-79
2021/11/02 17:35:44;;;;;;;1.83;1.10;;;;;;;;;;6216175;23;20324;-80
2021/11/02 17:38:09;;;;;;;2.13;1.60;;;;;;;;;;6216013;23;20001;-78
2021/11/02 17:40:36;;;;;;;4.05;1.30;;;;;;;;;;6215966;23;20058;-79
2021/11/02 17:43:03;;;;;;;2.75;1.80;;;;;;;;;;6215883;23;20470;-78
2021/11/02 17:45:29;;;;;;;3.53;2.03;;;;;;;;;;6216094;23;20072;-80
2021/11/02 17:47:56;;;;;;;1.55;1.25;;;;;;;;;;6215798;23;20053;-79
2021/11/02 17:50:25;;;;;;;3.28;1.58;;;;;;;;;;6214583;23;19997;-78
2021/11/02 17:52:51;;;;;;;2.10;1.40;;;;;;;;;;6217062;23;20079;-78
2021/11/02 17:55:17;;;;;;;1.42;1.33;;;;;;;;;;6217322;23;20055;-83
2021/11/02 17:57:46;;;;;;;1.83;1.73;;;;;;;;;;6218051;23;20363;-80
2021/11/02 18:00:15;;;;;;;1.88;1.20;;;;;;;;;;6217788;23;20008;-80
2021/11/02 18:02:40;;;;;;;1.83;1.25;;;;;;;;;;6217892;23;20004;-81
2021/11/02 18:05:08;;;;;;;2.85;1.30;;;;;;;;;;6240951;23;20015;-79
2021/11/02 18:07:34;;;;;;;1.52;1.42;;;;;;;;;;6217274;23;20435;-78
2021/11/02 18:09:59;;;;;;;1.95;1.60;;;;;;;;;;6217716;23;20008;-78
2021/11/02 18:12:27;;;;;;;2.50;1.60;;;;;;;;;;6215911;23;20000;-78
2021/11/02 18:14:54;;;;;;;2.30;2.00;;;;;;;;;;6217858;23;20499;-81
2021/11/02 18:17:20;;;;;;;4.38;3.60;;;;;;;;;;6217553;23;20005;-78
2021/11/02 18:19:51;;;;;;;4.68;2.88;;;;;;;;;;6217795;23;20039;-81
2021/11/02 18:22:17;;;;;;;4.28;1.38;;;;;;;;;;6217511;23;20005;-82
2021/11/02 18:24:45;;;;;;;1.38;1.27;;;;;;;;;;6217554;23;20011;-85
2021/11/02 18:27:11;;;;;;;1.55;1.45;;;;;;;;;;6217931;23;20000;-78
2021/11/02 18:29:36;;;;;;;2.55;1.77;;;;;;;;;;6218264;23;20410;-79
2021/11/02 18:32:03;;;;;;;2.30;2.10;;;;;;;;;;6217323;23;20063;-80
2021/11/02 18:34:28;;;;;;;2.65;1.92;;;;;;;;;;6191075;23;20013;-79
2021/11/02 18:36:55;;;;;;;2.33;2.00;;;;;;;;;;6217572;23;20051;-79
2021/11/02 18:39:22;;;;;;;2.00;1.60;;;;;;;;;;6216976;23;20040;-79
2021/11/02 18:41:49;;;;;;;2.70;1.70;;;;;;;;;;6217917;23;20473;-79
2021/11/02 18:44:15;;;;;;;2.50;1.83;;;;;;;;;;6217440;23;20026;-79
2021/11/02 18:46:40;;;;;;;2.63;2.03;;;;;;;;;;6217704;23;20412;-80
2021/11/02 18:49:06;;;;;;;2.50;2.30;;;;;;;;;;6217443;23;20420;-79
2021/11/02 18:51:32;;;;;;;5.25;2.92;;;;;;;;;;6217173;23;19996;-79
2021/11/02 18:53:58;;;;;;;2.15;1.60;;;;;;;;;;6217462;23;20107;-84
2021/11/02 18:56:25;;;;;;;1.85;1.60;;;;;;;;;;6191767;23;20447;-81
2021/11/02 18:58:52;;;;;;;2.65;2.30;;;;;;;;;;6191429;23;20001;-92
2021/11/02 19:01:21;;;;;;;1.85;1.42;;;;;;;;;;6191499;23;20008;-77
2021/11/02 19:03:50;;;;;;;2.25;1.65;;;;;;;;;;6190422;23;20005;-84
2021/11/02 19:06:15;;;;;;;1.30;1.10;;;;;;;;;;6215390;23;20424;-83
2021/11/02 19:08:41;;;;;;;5.25;3.90;;;;;;;;;;6217284;23;20035;-83
2021/11/02 19:11:06;;;;;;;5.20;2.17;;;;;;;;;;6217386;23;20343;-80
2021/11/02 19:13:32;;;;;;;1.88;1.60;;;;;;;;;;6217253;23;20005;-80
2021/11/02 19:15:57;;;;;;;2.85;1.40;;;;;;;;;;6217584;23;20004;-77
2021/11/02 19:18:23;;;;;;;3.95;2.08;;;;;;;;;;6217087;23;20317;-78
2021/11/02 19:20:49;;;;;;;2.88;2.20;;;;;;;;;;6217282;23;20301;-78
2021/11/02 19:23:14;;;;;;;2.28;2.00;;;;;;;;;;6190435;23;20079;-78
2021/11/02 19:25:40;;;;;;;3.63;3.33;;;;;;;;;;6216889;23;20005;-76
2021/11/02 19:28:06;;;;;;;3.03;2.00;;;;;;;;;;6217166;23;20396;-77
2021/11/02 19:30:31;;;;;;;2.53;2.00;;;;;;;;;;6216962;23;20059;-77
2021/11/02 19:32:57;;;;;;;3.42;1.90;;;;;;;;;;6217140;23;20000;-78
2021/11/02 19:35:22;;;;;;;3.08;2.10;;;;;;;;;;6216755;23;20028;-76
2021/11/02 19:37:48;;;;;;;2.38;2.17;;;;;;;;;;6217246;23;20001;-82
2021/11/02 19:40:13;;;;;;;3.45;2.75;;;;;;;;;;6216907;23;20125;-79
2021/11/02 19:42:40;;;;;;;4.18;2.30;;;;;;;;;;6215695;23;20079;-82
2021/11/02 19:45:06;;;;;;;5.05;2.45;;;;;;;;;;6216895;23;20421;-82
2021/11/02 19:47:32;;;;;;;2.78;2.33;;;;;;;;;;6216862;23;20004;-81
2021/11/02 19:49:58;;;;;;;5.20;2.95;;;;;;;;;;6216581;23;20004;-82
2021/11/02 19:52:25;;;;;;;2.90;2.60;;;;;;;;;;6216411;23;20079;-82
2021/11/02 19:54:51;;;;;;;3.13;1.77;;;;;;;;;;6217467;23;20047;-87
2021/11/02 19:57:16;;;;;;;5.38;2.50;;;;;;;;;;6190849;23;20371;-91
2021/11/02 19:59:45;;;;;;;1.70;1.60;;;;;;;;;;6217229;23;20079;-80
2021/11/02 20:02:11;;;;;;;5.00;1.95;;;;;;;;;;6216634;23;20000;-79
2021/11/02 20:04:36;;;;;;;4.20;2.63;;;;;;;;;;6216490;23;20012;-79
2021/11/02 20:07:08;;;;;;;5.82;2.95;;;;;;;;;;6216508;23;20005;-80
2021/11/02 20:09:38;;;;;;;3.85;2.70;;;;;;;;;;6217022;23;20010;-80
2021/11/02 20:12:08;;;;;;;2.50;1.90;;;;;;;;;;6216568;23;20055;-80
2021/11/02 20:14:34;;;;;;;;;;;;;;;;;;6217114;23;20091;-80
2021/11/02 20:17:00;;;;;;;5.43;2.65;;;;;;;;;;6216985;23;19958;-80
2021/11/02 20:19:33;;;;;;;2.30;1.75;;;;;;;;;;6216206;23;20000;-80
2021/11/02 20:22:01;;;;;;;2.88;1.80;;;;;;;;;;6216855;23;20004;-79
2021/11/02 20:24:32;;;;;;;2.53;2.00;;;;;;;;;;6216756;23;20004;-79
2021/11/02 20:26:59;;;;;;;3.83;2.60;;;;;;;;;;6216513;23;20369;-79
2021/11/02 20:29:29;;;;;;;2.88;2.53;;;;;;;;;;6216127;23;20031;-79
2021/11/02 20:31:56;;;;;;;4.45;2.75;;;;;;;;;;6216566;23;20012;-77
2021/11/02 20:34:22;;;;;;;2.40;2.20;;;;;;;;;;6216583;23;20005;-78
2021/11/02 20:37:09;;;;;;;4.05;2.30;;;;;;;;;;6215977;23;20000;-78
2021/11/02 20:39:44;;;;;;;2.85;1.98;;;;;;;;;;6216381;23;20007;-78
2021/11/02 20:42:12;;;;;;;3.28;2.72;;;;;;;;;;6216184;23;20008;-77
2021/11/02 20:44:45;;;;;;;4.30;2.80;;;;;;;;;;6216228;23;20063;-78
2021/11/02 20:47:13;;;;;;;4.20;3.80;;;;;;;;;;6215983;23;20023;-78
2021/11/02 20:49:43;;;;;;;7.18;4.70;;;;;;;;;;6216449;23;20024;-78
2021/11/02 20:52:09;;;;;;;3.92;2.90;;;;;;;;;;6216118;23;20008;-78
2021/11/02 20:54:37;;;;;;;4.60;3.28;;;;;;;;;;6216241;23;20024;-78
2021/11/02 20:57:02;;;;;;;3.95;2.97;;;;;;;;;;6216106;23;20009;-78
2021/11/02 20:59:28;;;;;;;6.68;3.60;;;;;;;;;;6216446;23;20026;-78
2021/11/02 21:01:55;;;;;;;6.55;3.42;;;;;;;;;;6216274;23;20015;-80
2021/11/02 21:04:21;;;;;;;4.57;3.45;;;;;;;;;;6216179;23;20012;-80
2021/11/02 21:06:50;;;;;;;3.35;2.88;;;;;;;;;;6216553;23;20005;-78
2021/11/02 21:09:17;;;;;;;;;;;;;;;;;;6216801;23;20004;-79
2021/11/02 21:11:47;;;;;;;2.65;2.15;;;;;;;;;;6216123;23;19908;-78
2021/11/02 21:14:12;;;;;;;3.88;2.10;;;;;;;;;;6215976;23;20027;-78
2021/11/02 21:16:42;;;;;;;2.67;1.80;;;;;;;;;;6216170;23;20412;-79
2021/11/02 21:19:09;;;;;;;;;;;;;;;;;;6190139;23;20494;-79
2021/11/02 21:21:36;;;;;;;2.75;2.20;;;;;;;;;;6216182;23;19907;-79
2021/11/02 21:24:01;;;;;;;3.00;2.05;;;;;;;;;;6216114;23;20005;-79
2021/11/02 21:26:31;;;;;;;2.75;2.08;;;;;;;;;;6215906;23;20327;-79
2021/11/02 21:28:56;;;;;;;2.75;1.90;;;;;;;;;;6191509;23;20301;-78
2021/11/02 21:31:22;;;;;;;3.95;2.60;;;;;;;;;;6217758;23;20142;-78
2021/11/02 21:33:52;;;;;;;4.03;2.20;;;;;;;;;;6217987;23;20009;-79
2021/11/02 21:36:20;;;;;;;3.65;2.70;;;;;;;;;;6217933;23;20054;-79
2021/11/02 21:38:45;;;;;;;3.88;2.95;;;;;;;;;;6217545;23;20019;-78
2021/11/02 21:41:26;;;;;;;4.40;2.60;;;;;;;;;;6217734;23;20032;-78
2021/11/02 21:43:58;;;;;;;3.38;2.78;;;;;;;;;;6217938;23;20439;-78
2021/11/02 21:46:28;;;;;;;4.43;2.60;;;;;;;;;;6217751;23;20009;-78
2021/11/02 21:49:13;;;;;;;13.85;3.63;;;;;;;;;;6217765;23;20005;-78
2021/11/02 21:51:42;;;;;;;4.65;2.85;;;;;;;;;;6217679;23;20122;-78
2021/11/02 21:54:09;;;;;;;3.42;2.72;;;;;;;;;;6218099;23;20011;-78
2021/11/02 21:56:40;;;;;;;4.63;3.45;;;;;;;;;;6217871;23;20005;-78
2021/11/02 21:59:30;;;;;;;5.20;3.10;;;;;;;;;;6191182;23;20132;-79
2021/11/02 22:01:57;;;;;;;6.15;3.38;;;;;;;;;;6218150;23;20035;-78
2021/11/02 22:04:23;;;;;;;5.47;3.55;;;;;;;;;;6166494;23;20011;-78
2021/11/02 22:06:48;;;;;;;4.43;3.10;;;;;;;;;;6217892;23;20012;-78
2021/11/02 22:09:14;;;;;;;7.72;2.95;;;;;;;;;;6217898;23;20005;-78
2021/11/02 22:11:40;;;;;;;5.75;4.07;;;;;;;;;;6217695;23;20000;-78
2021/11/02 22:14:05;;;;;;;4.00;3.60;;;;;;;;;;6217371;23;20072;-78
2021/11/02 22:16:31;;;;;;;5.15;3.60;;;;;;;;;;6217601;23;20000;-78
2021/11/02 22:18:58;;;;;;;3.88;2.17;;;;;;;;;;6191029;23;20000;-81
